createdAt,value
2023-02-17T00:01:36.984Z,101553.97
2023-02-17T00:04:39.151Z,101538.44
2023-02-17T00:07:40.671Z,101531.84
2023-02-17T00:14:03.441Z,101530.34
2023-02-17T00:17:06.279Z,101523.94
2023-02-17T00:20:08.226Z,101514.88
2023-02-17T00:23:10.386Z,101521.25
2023-02-17T00:26:11.995Z,101522.72
2023-02-17T00:29:14.483Z,101517.50
2023-02-17T00:32:16.469Z,101520.66
2023-02-17T00:35:18.771Z,101515.31
2023-02-17T00:38:20.061Z,101511.66
2023-02-17T00:41:23.022Z,101500.16
2023-02-17T00:44:25.005Z,101489.06
2023-02-17T00:47:27.862Z,101488.50
2023-02-17T00:50:29.266Z,101486.81
2023-02-17T00:53:31.478Z,101479.69
2023-02-17T00:56:32.757Z,101483.81
2023-02-17T00:59:34.925Z,101484.28
2023-02-17T01:02:37.818Z,101468.50
2023-02-17T01:05:42.161Z,101473.16
2023-02-17T01:08:43.418Z,101463.66
2023-02-17T01:11:44.811Z,101466.41
2023-02-17T01:14:46.200Z,101465.63
2023-02-17T01:17:49.080Z,101448.94
2023-02-17T01:20:50.687Z,101449.59
2023-02-17T01:23:54.592Z,101449.13
2023-02-17T01:26:56.853Z,101440.53
2023-02-17T01:29:58.173Z,101437.13
2023-02-17T01:33:01.140Z,101434.66
2023-02-17T01:36:02.921Z,101433.69
2023-02-17T01:39:05.204Z,101429.25
2023-02-17T01:42:07.423Z,101424.38
2023-02-17T01:45:36.518Z,101421.56
2023-02-17T01:48:42.527Z,101418.09
2023-02-17T01:51:48.785Z,101411.41
2023-02-17T01:54:55.013Z,101413.78
2023-02-17T01:57:58.320Z,101418.81
2023-02-17T02:01:02.556Z,101409.31
2023-02-17T02:04:06.598Z,101393.75
2023-02-17T02:07:16.214Z,101396.41
2023-02-17T02:10:19.481Z,101385.31
2023-02-17T02:13:21.177Z,101375.13
2023-02-17T02:16:30.765Z,101369.16
2023-02-17T02:19:50.527Z,101357.38
2023-02-17T02:23:29.999Z,101342.88
2023-02-17T02:27:19.555Z,101340.44
2023-02-17T02:30:47.365Z,101336.38
2023-02-17T02:33:52.051Z,101326.97
2023-02-17T02:36:58.973Z,101322.13
2023-02-17T02:40:03.237Z,101331.56
2023-02-17T02:43:06.076Z,101330.69
2023-02-17T02:46:07.732Z,101327.47
2023-02-17T02:49:11.623Z,101315.84
2023-02-17T02:52:23.329Z,101307.31
2023-02-17T02:55:41.895Z,101299.81
2023-02-17T02:58:50.647Z,101297.09
2023-02-17T03:02:06.011Z,101282.59
2023-02-17T03:05:16.018Z,101286.31
2023-02-17T03:08:21.999Z,101283.50
2023-02-17T03:11:32.557Z,101273.69
2023-02-17T03:14:38.283Z,101274.84
2023-02-17T03:17:40.474Z,101268.41
2023-02-17T03:20:48.516Z,101265.59
2023-02-17T03:23:49.811Z,101270.63
2023-02-17T03:26:52.401Z,101264.75
2023-02-17T03:29:54.005Z,101268.09
2023-02-17T03:32:56.666Z,101276.44
2023-02-17T03:35:58.596Z,101277.66
2023-02-17T03:39:01.197Z,101272.41
2023-02-17T03:42:03.081Z,101265.16
2023-02-17T03:45:04.855Z,101268.56
2023-02-17T03:48:06.173Z,101265.84
2023-02-17T03:51:14.586Z,101255.03
2023-02-17T03:54:15.878Z,101259.09
2023-02-17T03:57:18.418Z,101259.69
2023-02-17T04:00:20.995Z,101246.22
2023-02-17T04:03:23.600Z,101251.47
2023-02-17T04:06:26.838Z,101239.84
2023-02-17T04:09:29.470Z,101234.84
2023-02-17T04:12:30.778Z,101241.03
2023-02-17T04:15:32.138Z,101236.13
2023-02-17T04:18:34.773Z,101239.47
2023-02-17T04:21:36.772Z,101237.66
2023-02-17T04:24:38.321Z,101219.56
2023-02-17T04:27:39.585Z,101223.69
2023-02-17T04:30:41.046Z,101214.06
2023-02-17T04:33:42.329Z,101210.50
2023-02-17T04:36:45.798Z,101214.53
2023-02-17T04:39:47.164Z,101225.03
2023-02-17T04:42:49.654Z,101228.78
2023-02-17T04:45:51.405Z,101226.03
2023-02-17T04:48:54.019Z,101216.78
2023-02-17T04:51:56.016Z,101205.63
2023-02-17T04:54:57.351Z,101204.78
2023-02-17T04:57:58.774Z,101193.03
2023-02-17T05:01:01.530Z,101196.81
2023-02-17T05:04:03.018Z,101204.09
2023-02-17T05:07:05.410Z,101195.00
2023-02-17T05:10:07.504Z,101190.97
2023-02-17T05:13:10.226Z,101185.22
2023-02-17T05:16:11.568Z,101195.91
2023-02-17T05:19:14.032Z,101191.31
2023-02-17T05:22:16.028Z,101187.28
2023-02-17T05:25:19.062Z,101185.84
2023-02-17T05:28:20.320Z,101183.47
2023-02-17T05:31:21.753Z,101174.44
2023-02-17T05:34:23.068Z,101165.84
2023-02-17T05:37:26.081Z,101173.59
2023-02-17T05:40:27.382Z,101172.06
2023-02-17T05:46:48.356Z,101173.97
2023-02-17T05:49:50.822Z,101173.03
2023-02-17T05:52:52.823Z,101161.16
2023-02-17T05:55:54.217Z,101159.47
2023-02-17T05:58:55.822Z,101161.38
2023-02-17T06:01:58.233Z,101162.69
2023-02-17T06:04:59.721Z,101160.78
2023-02-17T06:08:02.897Z,101147.00
2023-02-17T06:11:05.069Z,101150.56
2023-02-17T06:14:07.580Z,101143.50
2023-02-17T06:17:08.954Z,101141.84
2023-02-17T06:20:12.327Z,101133.88
2023-02-17T06:23:15.474Z,101134.47
2023-02-17T06:26:18.242Z,101126.88
2023-02-17T06:29:19.666Z,101128.03
2023-02-17T06:32:21.074Z,101120.09
2023-02-17T06:35:23.479Z,101133.31
2023-02-17T06:38:25.609Z,101123.78
2023-02-17T06:41:28.065Z,101121.03
2023-02-17T06:44:30.403Z,101126.03
2023-02-17T06:47:32.206Z,101129.53
2023-02-17T06:50:34.269Z,101122.41
2023-02-17T06:53:36.297Z,101121.22
2023-02-17T06:56:37.620Z,101114.56
2023-02-17T07:02:59.846Z,101104.38
2023-02-17T07:06:01.212Z,101106.75
2023-02-17T07:09:04.890Z,101096.78
2023-02-17T07:12:07.846Z,101108.41
2023-02-17T07:15:12.363Z,101101.78
2023-02-17T07:21:34.481Z,101097.16
2023-02-17T07:24:36.411Z,101101.78
2023-02-17T07:27:38.060Z,101102.47
2023-02-17T07:30:40.671Z,101094.88
2023-02-17T07:33:43.007Z,101099.16
2023-02-17T07:40:07.779Z,101078.75
2023-02-17T07:43:09.118Z,101079.56
2023-02-17T07:46:11.587Z,101072.19
2023-02-17T07:49:15.145Z,101080.28
2023-02-17T07:55:18.351Z,101065.06
2023-02-17T07:58:19.619Z,101064.97
2023-02-17T08:01:22.502Z,101071.97
2023-02-17T08:04:23.844Z,101075.53
2023-02-17T08:07:25.278Z,101071.13
2023-02-17T08:10:46.501Z,101065.91
2023-02-17T08:13:47.795Z,101066.97
2023-02-17T08:16:49.175Z,101073.88
2023-02-17T08:19:50.480Z,101059.44
2023-02-17T08:22:51.800Z,101070.19
2023-02-17T08:25:58.306Z,101070.28
2023-02-17T08:29:01.249Z,101056.34
2023-02-17T08:32:03.174Z,101052.06
2023-02-17T08:35:05.876Z,101056.25
2023-02-17T08:38:07.145Z,101047.31
2023-02-17T08:41:13.639Z,101047.91
2023-02-17T08:44:18.166Z,101041.25
2023-02-17T08:47:19.467Z,101039.56
2023-02-17T08:50:21.875Z,101029.94
2023-02-17T08:53:23.179Z,101022.06
2023-02-17T08:56:26.628Z,101015.69
2023-02-17T08:59:27.887Z,101012.47
2023-02-17T09:02:30.498Z,101005.91
2023-02-17T09:05:33.600Z,100997.34
2023-02-17T09:08:34.936Z,100989.28
2023-02-17T09:11:38.727Z,100985.19
2023-02-17T09:14:40.125Z,100987.50
2023-02-17T09:17:41.496Z,100978.41
2023-02-17T09:20:43.910Z,100971.63
2023-02-17T09:23:45.566Z,100963.81
2023-02-17T09:26:48.679Z,100958.19
2023-02-17T09:29:50.018Z,100964.88
2023-02-17T09:32:52.757Z,100949.34
2023-02-17T09:35:54.061Z,100949.66
2023-02-17T09:38:56.066Z,100941.44
2023-02-17T09:41:59.085Z,100932.78
2023-02-17T09:45:04.536Z,100934.19
2023-02-17T09:48:08.683Z,100926.41
2023-02-17T09:51:18.694Z,100937.50
2023-02-17T09:54:26.483Z,100925.91
2023-02-17T09:57:34.144Z,100918.91
2023-02-17T10:00:40.692Z,100912.44
2023-02-17T10:03:46.308Z,100910.53
2023-02-17T10:06:51.867Z,100914.34
2023-02-17T10:09:59.601Z,100896.03
2023-02-17T10:13:03.990Z,100897.66
2023-02-17T10:16:11.220Z,100898.09
2023-02-17T10:19:16.942Z,100881.91
2023-02-17T10:22:20.923Z,100878.84
2023-02-17T10:25:44.260Z,100874.00
2023-02-17T10:28:52.848Z,100857.09
2023-02-17T10:32:10.269Z,100858.78
2023-02-17T10:35:17.024Z,100852.38
2023-02-17T10:38:28.311Z,100849.16
2023-02-17T10:41:35.845Z,100849.22
2023-02-17T10:44:38.454Z,100842.25
2023-02-17T10:47:40.444Z,100820.66
2023-02-17T10:50:43.556Z,100831.50
2023-02-17T10:53:48.272Z,100839.00
2023-02-17T10:56:55.252Z,100817.34
2023-02-17T10:59:57.685Z,100814.19
2023-02-17T11:03:00.192Z,100800.63
2023-02-17T11:06:04.079Z,100794.25
2023-02-17T11:09:17.439Z,100785.09
2023-02-17T11:12:22.352Z,100770.44
2023-02-17T11:15:28.508Z,100759.72
2023-02-17T11:18:34.311Z,100748.00
2023-02-17T11:21:42.672Z,100742.66
2023-02-17T11:24:44.114Z,100753.56
2023-02-17T11:27:50.380Z,100739.84
2023-02-17T11:30:56.173Z,100738.72
2023-02-17T11:37:21.094Z,100719.38
2023-02-17T11:40:27.334Z,100710.81
2023-02-17T11:43:29.915Z,100693.94
2023-02-17T11:46:33.517Z,100681.69
2023-02-17T11:49:55.115Z,100675.44
2023-02-17T11:56:34.040Z,100649.84
2023-02-17T12:03:22.329Z,100646.44
2023-02-17T12:09:39.943Z,100638.28
2023-02-17T12:12:59.034Z,100615.50
2023-02-17T12:16:16.319Z,100628.28
2023-02-17T12:19:32.735Z,100610.75
2023-02-17T12:22:43.340Z,100609.75
2023-02-17T12:25:50.902Z,100606.44
2023-02-17T12:29:17.713Z,100598.50
2023-02-17T12:32:32.333Z,100596.03
2023-02-17T12:35:43.580Z,100589.59
2023-02-17T12:38:50.559Z,100586.69
2023-02-17T12:41:59.837Z,100574.88
2023-02-17T12:45:06.389Z,100567.53
2023-02-17T12:48:13.830Z,100580.44
2023-02-17T12:51:23.231Z,100569.50
2023-02-17T12:54:32.320Z,100575.50
2023-02-17T12:57:41.661Z,100585.78
2023-02-17T13:00:46.152Z,100587.16
2023-02-17T13:03:48.068Z,100576.72
2023-02-17T13:06:54.619Z,100573.09
2023-02-17T13:09:56.864Z,100556.31
2023-02-17T13:13:05.023Z,100554.69
2023-02-17T13:16:11.133Z,100554.50
2023-02-17T13:19:14.351Z,100553.38
2023-02-17T13:22:23.130Z,100552.03
2023-02-17T13:25:29.536Z,100542.66
2023-02-17T13:28:35.826Z,100545.41
2023-02-17T13:31:50.331Z,100524.00
2023-02-17T13:34:59.887Z,100545.44
2023-02-17T13:38:02.444Z,100535.56
2023-02-17T13:41:07.556Z,100527.56
2023-02-17T13:44:30.889Z,100524.00
2023-02-17T13:47:37.864Z,100513.28
2023-02-17T13:50:45.023Z,100519.91
2023-02-17T13:53:49.856Z,100527.06
2023-02-17T13:56:53.655Z,100531.47
2023-02-17T14:00:10.257Z,100543.59
2023-02-17T14:03:20.019Z,100529.28
2023-02-17T14:06:27.788Z,100540.03
2023-02-17T14:09:31.516Z,100543.59
2023-02-17T14:12:32.906Z,100544.13
2023-02-17T14:15:34.912Z,100548.81
2023-02-17T14:18:38.398Z,100558.16
2023-02-17T14:21:41.996Z,100558.13
2023-02-17T14:24:43.316Z,100557.31
2023-02-17T14:27:47.656Z,100566.38
2023-02-17T14:30:50.683Z,100568.31
2023-02-17T14:33:54.162Z,100559.78
2023-02-17T14:37:07.336Z,100551.53
2023-02-17T14:40:17.025Z,100568.59
2023-02-17T14:43:18.709Z,100566.41
2023-02-17T14:46:20.880Z,100565.31
2023-02-17T14:49:23.184Z,100560.00
2023-02-17T14:52:25.160Z,100571.22
2023-02-17T14:55:33.088Z,100566.00
2023-02-17T14:58:35.504Z,100558.63
2023-02-17T15:04:58.066Z,100557.16
2023-02-17T15:08:02.187Z,100551.66
2023-02-17T15:11:03.628Z,100556.38
2023-02-17T15:14:07.315Z,100552.50
2023-02-17T15:17:10.328Z,100539.66
2023-02-17T15:20:13.023Z,100546.69
2023-02-17T15:23:16.542Z,100552.09
2023-02-17T15:26:17.799Z,100548.66
2023-02-17T15:29:21.508Z,100537.97
2023-02-17T15:32:23.934Z,100538.13
2023-02-17T15:35:27.395Z,100538.41
2023-02-17T15:38:29.727Z,100533.75
2023-02-17T15:41:31.690Z,100529.88
2023-02-17T15:44:40.562Z,100529.88
2023-02-17T15:47:42.623Z,100513.38
2023-02-17T15:50:44.941Z,100504.09
2023-02-17T15:53:46.991Z,100506.34
2023-02-17T15:56:50.078Z,100517.06
2023-02-17T15:59:55.352Z,100505.22
2023-02-17T16:02:57.477Z,100496.22
2023-02-17T16:05:59.248Z,100500.84
2023-02-17T16:09:00.654Z,100489.28
2023-02-17T16:12:02.152Z,100497.31
2023-02-17T16:15:04.205Z,100506.38
2023-02-17T16:18:06.224Z,100503.91
2023-02-17T16:21:09.530Z,100517.66
2023-02-17T16:24:10.951Z,100528.91
2023-02-17T16:27:15.416Z,100552.06
2023-02-17T16:30:19.664Z,100552.59
2023-02-17T16:33:21.631Z,100562.47
2023-02-17T16:36:23.005Z,100557.50
2023-02-17T16:39:24.310Z,100559.16
2023-02-17T16:42:25.756Z,100560.81
2023-02-17T16:45:29.981Z,100569.66
2023-02-17T16:48:35.137Z,100552.28
2023-02-17T16:51:36.992Z,100550.38
2023-02-17T16:54:39.580Z,100537.19
2023-02-17T16:57:42.530Z,100536.91
2023-02-17T17:00:44.904Z,100530.03
2023-02-17T17:03:46.919Z,100550.88
2023-02-17T17:06:51.211Z,100535.53
2023-02-17T17:10:14.648Z,100545.41
2023-02-17T17:13:13.848Z,100562.75
2023-02-17T17:16:19.313Z,100547.56
2023-02-17T17:19:21.667Z,100546.00
2023-02-17T17:22:23.657Z,100547.06
2023-02-17T17:25:25.081Z,100546.53
2023-02-17T17:28:26.364Z,100561.41
2023-02-17T17:31:28.395Z,100543.50
2023-02-17T17:34:30.398Z,100558.94
2023-02-17T17:37:31.702Z,100541.03
2023-02-17T17:40:47.324Z,100555.28
2023-02-17T17:43:50.222Z,100561.91
2023-02-17T17:46:51.574Z,100581.38
2023-02-17T17:49:53.485Z,100587.19
2023-02-17T17:52:54.820Z,100599.56
2023-02-17T17:55:56.103Z,100626.19
2023-02-17T17:58:59.249Z,100627.44
2023-02-17T18:02:00.744Z,100626.69
2023-02-17T18:05:03.189Z,100616.06
2023-02-17T18:08:05.444Z,100640.19
2023-02-17T18:11:08.027Z,100632.72
2023-02-17T18:14:13.824Z,100653.78
2023-02-17T18:17:17.377Z,100644.25
2023-02-17T18:20:19.599Z,100667.44
2023-02-17T18:23:20.909Z,100674.00
2023-02-17T18:26:22.331Z,100679.06
2023-02-17T18:29:23.851Z,100701.22
2023-02-17T18:32:25.203Z,100692.22
2023-02-17T18:35:27.482Z,100708.16
2023-02-17T18:38:30.189Z,100683.16
2023-02-17T18:41:34.464Z,100720.75
2023-02-17T18:44:37.059Z,100716.97
2023-02-17T18:47:38.367Z,100720.56
2023-02-17T18:50:41.598Z,100731.69
2023-02-17T18:53:43.037Z,100750.72
2023-02-17T18:56:45.451Z,100761.41
2023-02-17T18:59:46.905Z,100758.00
2023-02-17T19:02:48.340Z,100766.66
2023-02-17T19:05:51.501Z,100771.97
2023-02-17T19:08:53.309Z,100787.03
2023-02-17T19:11:55.028Z,100773.28
2023-02-17T19:14:56.461Z,100777.22
2023-02-17T19:17:58.047Z,100791.16
2023-02-17T19:21:00.071Z,100789.72
2023-02-17T19:24:01.336Z,100785.63
2023-02-17T19:27:02.962Z,100802.34
2023-02-17T19:30:05.404Z,100820.41
2023-02-17T19:33:06.709Z,100815.25
2023-02-17T19:36:10.989Z,100832.94
2023-02-17T19:39:12.277Z,100818.00
2023-02-17T19:42:13.571Z,100832.03
2023-02-17T19:45:14.965Z,100834.31
2023-02-17T19:48:16.226Z,100836.94
2023-02-17T19:51:19.055Z,100835.97
2023-02-17T19:54:21.372Z,100838.00
2023-02-17T19:57:22.773Z,100840.94
2023-02-17T20:00:24.577Z,100860.56
2023-02-17T20:03:25.876Z,100867.34
2023-02-17T20:06:29.841Z,100856.13
2023-02-17T20:09:32.902Z,100867.81
2023-02-17T20:12:34.453Z,100873.44
2023-02-17T20:15:36.197Z,100875.00
2023-02-17T20:18:39.018Z,100869.28
2023-02-17T20:21:45.262Z,100879.34
2023-02-17T20:24:46.631Z,100885.44
2023-02-17T20:27:49.302Z,100873.69
2023-02-17T20:30:51.246Z,100888.13
2023-02-17T20:33:52.941Z,100911.50
2023-02-17T20:36:55.462Z,100892.91
2023-02-17T20:39:56.890Z,100904.94
2023-02-17T20:43:00.499Z,100915.34
2023-02-17T20:46:03.201Z,100910.69
2023-02-17T20:49:04.526Z,100916.53
2023-02-17T20:52:06.486Z,100931.00
2023-02-17T20:55:08.244Z,100926.41
2023-02-17T20:58:10.277Z,100940.78
2023-02-17T21:01:11.950Z,100943.28
2023-02-17T21:04:14.459Z,100948.50
2023-02-17T21:07:17.366Z,100966.38
2023-02-17T21:10:21.179Z,100956.13
2023-02-17T21:13:23.732Z,100965.53
2023-02-17T21:16:27.475Z,100962.56
2023-02-17T21:22:50.598Z,100951.88
2023-02-17T21:25:52.820Z,100962.19
2023-02-17T21:28:54.634Z,100978.94
2023-02-17T21:35:15.323Z,100976.47
2023-02-17T21:41:41.273Z,100988.28
2023-02-17T21:44:52.298Z,100997.34
2023-02-17T21:47:53.887Z,101001.84
2023-02-17T21:51:04.939Z,101002.31
2023-02-17T21:54:10.989Z,101001.13
2023-02-17T21:57:12.268Z,101013.31
2023-02-17T22:00:15.026Z,101015.25
2023-02-17T22:03:17.449Z,101015.38
2023-02-17T22:06:21.362Z,101013.00
2023-02-17T22:09:24.651Z,101036.59
2023-02-17T22:12:26.312Z,101027.88
2023-02-17T22:18:47.704Z,101039.53
2023-02-17T22:21:50.091Z,101066.75
2023-02-17T22:24:52.230Z,101076.22
2023-02-17T22:27:53.487Z,101064.56
2023-02-17T22:30:54.799Z,101073.47
2023-02-17T22:33:57.187Z,101078.28
2023-02-17T22:36:58.589Z,101076.16
2023-02-17T22:40:00.542Z,101088.84
2023-02-17T22:43:01.929Z,101084.22
2023-02-17T22:46:04.121Z,101075.47
2023-02-17T22:49:05.637Z,101084.03
2023-02-17T22:52:07.256Z,101085.28
2023-02-17T22:55:10.155Z,101073.69
2023-02-17T22:58:11.435Z,101079.81
2023-02-17T23:01:16.485Z,101077.38
2023-02-17T23:04:17.916Z,101080.38
2023-02-17T23:07:20.389Z,101077.66
2023-02-17T23:10:23.507Z,101078.16
2023-02-17T23:13:25.135Z,101078.06
2023-02-17T23:19:46.968Z,101077.97
2023-02-17T23:22:48.717Z,101086.28
2023-02-17T23:25:54.363Z,101086.91
2023-02-17T23:28:55.840Z,101097.97
2023-02-17T23:31:58.744Z,101094.09
2023-02-17T23:35:00.118Z,101108.63
2023-02-17T23:38:01.382Z,101105.06
2023-02-17T23:41:03.845Z,101107.66
2023-02-17T23:44:07.519Z,101102.72
2023-02-17T23:47:08.780Z,101116.78
2023-02-17T23:50:10.764Z,101109.31
2023-02-17T23:53:12.031Z,101115.53
2023-02-17T23:56:29.336Z,101107.50
2023-02-17T23:59:30.605Z,101111.22
